createdAt,value
2023-05-19T00:00:02.254Z,3.20
2023-05-19T00:02:39.793Z,2.80
2023-05-19T00:05:07.958Z,3.70
2023-05-19T00:07:38.584Z,3.20
2023-05-19T00:10:07.178Z,2.92
2023-05-19T00:12:36.109Z,2.75
2023-05-19T00:15:04.124Z,2.53
2023-05-19T00:17:31.671Z,2.33
2023-05-19T00:19:59.209Z,2.70
2023-05-19T00:22:26.732Z,2.45
2023-05-19T00:24:54.343Z,2.22
2023-05-19T00:27:21.838Z,2.63
2023-05-19T00:29:49.441Z,2.30
2023-05-19T00:32:17.065Z,2.30
2023-05-19T00:34:44.722Z,2.42
2023-05-19T00:37:12.277Z,2.30
2023-05-19T00:39:39.765Z,2.13
2023-05-19T00:42:07.385Z,2.20
2023-05-19T00:44:41.087Z,2.40
2023-05-19T00:47:08.977Z,2.30
2023-05-19T00:49:36.627Z,2.20
2023-05-19T00:52:06.794Z,2.22
2023-05-19T00:54:35.025Z,3.08
2023-05-19T00:57:03.728Z,2.30
2023-05-19T00:59:31.293Z,2.58
2023-05-19T01:01:59.126Z,3.00
2023-05-19T01:04:26.768Z,2.90
2023-05-19T01:06:57.351Z,2.70
2023-05-19T01:09:24.909Z,2.60
2023-05-19T01:11:52.783Z,2.15
2023-05-19T01:14:20.857Z,2.30
2023-05-19T01:16:58.614Z,2.85
2023-05-19T01:19:55.279Z,2.80
2023-05-19T01:23:01.279Z,2.70
2023-05-19T01:25:59.432Z,2.70
2023-05-19T01:28:51.906Z,2.80
2023-05-19T01:31:24.074Z,3.13
2023-05-19T01:33:53.804Z,3.47
2023-05-19T01:36:23.320Z,2.50
2023-05-19T01:38:53.409Z,3.47
2023-05-19T01:41:22.690Z,3.35
2023-05-19T01:43:52.506Z,3.28
2023-05-19T01:46:21.585Z,3.00
2023-05-19T01:48:49.489Z,3.30
2023-05-19T01:51:17.270Z,3.20
2023-05-19T01:53:44.851Z,3.22
2023-05-19T01:56:17.225Z,3.53
2023-05-19T01:58:47.587Z,3.35
2023-05-19T02:01:38.157Z,3.38
2023-05-19T02:04:32.530Z,3.05
2023-05-19T02:07:15.889Z,3.38
2023-05-19T02:10:02.901Z,3.80
2023-05-19T02:12:37.799Z,3.30
2023-05-19T02:15:12.529Z,3.20
2023-05-19T02:17:43.314Z,3.17
2023-05-19T02:20:12.040Z,3.45
2023-05-19T02:22:39.758Z,3.58
2023-05-19T02:25:08.635Z,3.63
2023-05-19T02:27:38.666Z,4.00
2023-05-19T02:30:08.409Z,3.42
2023-05-19T02:32:37.841Z,3.58
2023-05-19T02:35:06.077Z,3.38
2023-05-19T02:37:34.112Z,3.90
2023-05-19T02:40:01.652Z,4.10
2023-05-19T02:42:30.711Z,4.40
2023-05-19T02:44:58.240Z,3.85
2023-05-19T02:47:25.912Z,4.15
2023-05-19T02:49:53.446Z,3.35
2023-05-19T02:52:22.226Z,3.50
2023-05-19T02:54:49.784Z,4.03
2023-05-19T02:57:17.669Z,4.00
2023-05-19T02:59:45.195Z,3.40
2023-05-19T03:02:12.850Z,4.05
2023-05-19T03:04:43.169Z,3.60
2023-05-19T03:07:10.948Z,3.22
2023-05-19T03:09:38.590Z,3.28
2023-05-19T03:12:07.758Z,3.78
2023-05-19T03:14:37.908Z,4.05
2023-05-19T03:17:08.009Z,4.03
2023-05-19T03:19:35.969Z,3.70
2023-05-19T03:22:03.634Z,3.83
2023-05-19T03:24:31.894Z,3.90
2023-05-19T03:26:59.606Z,4.13
2023-05-19T03:29:27.174Z,4.10
2023-05-19T03:31:55.129Z,3.83
2023-05-19T03:34:22.924Z,3.78
2023-05-19T03:36:51.204Z,3.67
2023-05-19T03:39:18.957Z,3.78
2023-05-19T03:41:49.045Z,3.47
2023-05-19T03:44:16.751Z,3.63
2023-05-19T03:46:45.243Z,3.20
2023-05-19T03:49:31.444Z,3.03
2023-05-19T03:52:21.910Z,3.08
2023-05-19T03:54:57.957Z,2.95
2023-05-19T03:57:26.066Z,3.35
2023-05-19T03:59:54.494Z,3.88
2023-05-19T04:02:22.241Z,3.67
2023-05-19T04:04:51.407Z,3.15
2023-05-19T04:07:18.955Z,3.10
2023-05-19T04:09:46.737Z,3.35
2023-05-19T04:12:14.322Z,3.45
2023-05-19T04:14:41.893Z,3.95
2023-05-19T04:17:11.094Z,3.10
2023-05-19T04:19:38.613Z,3.70
2023-05-19T04:22:06.286Z,3.58
2023-05-19T04:24:33.999Z,3.88
2023-05-19T04:27:02.759Z,3.38
2023-05-19T04:29:30.543Z,3.67
2023-05-19T04:31:58.135Z,3.50
2023-05-19T04:34:25.826Z,3.55
2023-05-19T04:36:53.667Z,3.47
2023-05-19T04:39:22.917Z,3.45
2023-05-19T04:41:54.234Z,3.35
2023-05-19T04:44:21.833Z,3.30
2023-05-19T04:46:54.617Z,3.60
2023-05-19T04:49:24.513Z,3.30
2023-05-19T04:51:55.486Z,3.58
2023-05-19T04:54:27.386Z,3.30
2023-05-19T04:56:56.409Z,3.78
2023-05-19T04:59:25.920Z,4.03
2023-05-19T05:01:53.564Z,3.67
2023-05-19T05:04:21.813Z,4.53
2023-05-19T05:06:49.800Z,4.45
2023-05-19T05:09:20.057Z,4.32
2023-05-19T05:11:48.226Z,3.92
2023-05-19T05:14:16.496Z,3.78
2023-05-19T05:16:44.691Z,3.58
2023-05-19T05:19:17.089Z,4.03
2023-05-19T05:21:45.969Z,3.50
2023-05-19T05:24:17.143Z,3.55
2023-05-19T05:26:50.625Z,3.83
2023-05-19T05:29:18.280Z,3.60
2023-05-19T05:31:45.959Z,3.00
2023-05-19T05:34:13.967Z,3.90
2023-05-19T05:36:41.563Z,3.65
2023-05-19T05:39:09.666Z,4.30
2023-05-19T05:41:38.787Z,4.20
2023-05-19T05:44:11.301Z,4.15
2023-05-19T05:46:41.603Z,3.88
2023-05-19T05:49:10.437Z,3.47
2023-05-19T05:51:42.938Z,4.18
2023-05-19T05:54:13.489Z,3.88
2023-05-19T05:56:46.110Z,3.40
2023-05-19T05:59:15.489Z,3.30
2023-05-19T06:01:44.638Z,3.63
2023-05-19T06:04:12.614Z,3.65
2023-05-19T06:06:40.301Z,3.55
2023-05-19T06:09:09.023Z,3.67
2023-05-19T06:11:36.922Z,3.60
2023-05-19T06:14:05.517Z,3.78
2023-05-19T06:16:53.546Z,3.83
2023-05-19T06:19:21.818Z,3.58
2023-05-19T06:21:49.490Z,3.95
2023-05-19T06:24:17.239Z,3.97
2023-05-19T06:26:44.753Z,4.30
2023-05-19T06:29:12.433Z,4.68
2023-05-19T06:31:40.560Z,3.75
2023-05-19T06:34:12.598Z,4.15
2023-05-19T06:36:41.649Z,4.32
2023-05-19T06:39:10.185Z,4.53
2023-05-19T06:41:38.084Z,4.43
2023-05-19T06:44:09.194Z,4.55
2023-05-19T06:46:36.936Z,4.55
2023-05-19T06:49:05.226Z,4.57
2023-05-19T06:51:37.713Z,4.50
2023-05-19T06:54:05.300Z,4.10
2023-05-19T06:56:32.998Z,4.43
2023-05-19T06:59:00.817Z,4.25
2023-05-19T07:01:34.492Z,4.35
2023-05-19T07:04:03.110Z,4.05
2023-05-19T07:06:31.434Z,4.55
2023-05-19T07:08:59.141Z,4.35
2023-05-19T07:11:27.263Z,4.05
2023-05-19T07:13:55.035Z,4.45
2023-05-19T07:16:27.728Z,4.15
2023-05-19T07:18:56.012Z,4.60
2023-05-19T07:21:23.582Z,4.20
2023-05-19T07:23:51.654Z,4.55
2023-05-19T07:26:19.275Z,4.53
2023-05-19T07:28:46.802Z,4.72
2023-05-19T07:31:14.340Z,4.57
2023-05-19T07:33:41.840Z,4.40
2023-05-19T07:36:09.512Z,4.30
2023-05-19T07:38:37.229Z,5.20
2023-05-19T07:41:05.993Z,4.20
2023-05-19T07:43:33.636Z,4.18
2023-05-19T07:46:01.149Z,4.30
2023-05-19T07:48:29.663Z,4.43
2023-05-19T07:50:57.498Z,4.25
2023-05-19T07:53:25.027Z,4.28
2023-05-19T07:55:52.665Z,4.05
2023-05-19T07:58:20.796Z,4.15
2023-05-19T08:00:48.388Z,4.25
2023-05-19T08:03:18.398Z,4.07
2023-05-19T08:05:46.517Z,3.85
2023-05-19T08:09:19.471Z,3.95
2023-05-19T08:11:50.296Z,3.70
2023-05-19T08:14:17.760Z,3.40
2023-05-19T08:16:46.290Z,4.97
2023-05-19T08:19:13.936Z,4.20
2023-05-19T08:21:42.583Z,3.92
2023-05-19T08:24:10.182Z,3.80
2023-05-19T08:26:38.052Z,5.70
2023-05-19T08:29:05.833Z,4.10
2023-05-19T08:31:33.474Z,4.10
2023-05-19T08:34:01.117Z,4.22
2023-05-19T08:36:29.614Z,3.70
2023-05-19T08:38:57.094Z,3.28
2023-05-19T08:41:24.657Z,3.35
2023-05-19T08:43:52.180Z,2.72
2023-05-19T08:46:22.223Z,2.78
2023-05-19T08:48:54.544Z,2.40
2023-05-19T08:51:39.326Z,2.80
2023-05-19T08:54:15.976Z,2.20
2023-05-19T08:56:45.712Z,2.15
2023-05-19T08:59:17.410Z,2.25
2023-05-19T09:01:46.644Z,2.38
2023-05-19T09:04:16.015Z,2.10
2023-05-19T09:06:44.836Z,2.22
2023-05-19T09:09:12.737Z,2.28
2023-05-19T09:11:40.278Z,2.42
2023-05-19T09:14:07.854Z,2.10
2023-05-19T09:16:35.833Z,2.22
2023-05-19T09:19:03.405Z,2.40
2023-05-19T09:21:32.097Z,2.20
2023-05-19T09:24:06.576Z,2.08
2023-05-19T09:26:42.006Z,2.45
2023-05-19T09:29:27.435Z,2.63
2023-05-19T09:32:00.981Z,2.25
2023-05-19T09:34:28.834Z,2.20
2023-05-19T09:36:57.895Z,2.45
2023-05-19T09:39:26.350Z,2.63
2023-05-19T09:41:55.473Z,1.92
2023-05-19T09:44:24.395Z,2.40
2023-05-19T09:46:53.204Z,2.10
2023-05-19T09:49:25.435Z,2.20
2023-05-19T09:52:02.364Z,2.40
2023-05-19T09:54:32.526Z,2.40
2023-05-19T09:57:05.245Z,2.35
2023-05-19T10:02:03.020Z,2.50
2023-05-19T10:04:31.898Z,2.22
2023-05-19T10:07:00.223Z,2.40
2023-05-19T10:09:29.730Z,2.45
2023-05-19T10:11:59.019Z,2.45
2023-05-19T10:14:28.862Z,2.55
2023-05-19T10:16:58.272Z,2.47
2023-05-19T10:19:28.942Z,4.22
2023-05-19T10:21:57.105Z,2.75
2023-05-19T10:24:24.632Z,2.53
2023-05-19T10:26:58.751Z,2.85
2023-05-19T10:29:30.801Z,2.92
2023-05-19T10:32:03.289Z,2.97
2023-05-19T10:34:50.582Z,3.20
2023-05-19T10:37:33.921Z,3.08
2023-05-19T10:40:10.097Z,2.67
2023-05-19T10:43:11.952Z,3.42
2023-05-19T10:45:49.383Z,2.72
2023-05-19T10:48:17.604Z,3.03
2023-05-19T10:50:46.864Z,4.93
2023-05-19T10:53:18.698Z,3.03
2023-05-19T10:55:49.850Z,3.00
2023-05-19T10:58:40.465Z,2.90
2023-05-19T11:01:12.080Z,2.90
2023-05-19T11:03:47.521Z,3.35
2023-05-19T11:06:38.832Z,2.90
2023-05-19T11:09:09.364Z,3.05
2023-05-19T11:11:46.662Z,5.47
2023-05-19T11:14:17.425Z,2.80
2023-05-19T11:16:48.722Z,3.78
2023-05-19T11:19:30.653Z,3.20
2023-05-19T11:22:10.773Z,3.00
2023-05-19T11:24:52.426Z,2.63
2023-05-19T11:27:34.060Z,2.70
2023-05-19T11:30:11.650Z,2.95
2023-05-19T11:32:42.045Z,2.70
2023-05-19T11:35:10.550Z,3.22
2023-05-19T11:37:38.154Z,3.35
2023-05-19T11:40:07.488Z,2.72
2023-05-19T11:42:37.102Z,2.92
2023-05-19T11:45:05.386Z,3.00
2023-05-19T11:47:46.516Z,3.03
2023-05-19T11:50:23.426Z,2.83
2023-05-19T11:52:52.192Z,2.67
2023-05-19T11:55:23.908Z,2.70
2023-05-19T11:58:05.245Z,2.88
2023-05-19T12:00:39.706Z,3.10
2023-05-19T12:03:09.107Z,2.65
2023-05-19T12:05:41.802Z,3.50
2023-05-19T12:08:11.869Z,2.80
2023-05-19T12:10:40.601Z,3.38
2023-05-19T12:13:09.974Z,3.45
2023-05-19T12:15:38.113Z,3.03
2023-05-19T12:18:05.842Z,4.43
2023-05-19T12:20:36.212Z,3.67
2023-05-19T12:23:04.735Z,5.97
2023-05-19T12:25:32.919Z,4.15
2023-05-19T12:28:03.329Z,6.03
2023-05-19T12:30:33.150Z,3.47
2023-05-19T12:33:02.424Z,3.70
2023-05-19T12:35:34.063Z,4.15
2023-05-19T12:38:05.621Z,4.68
2023-05-19T12:40:37.571Z,4.40
2023-05-19T12:43:07.005Z,5.05
2023-05-19T12:45:36.890Z,4.15
2023-05-19T12:48:16.863Z,4.60
2023-05-19T12:50:48.649Z,5.55
2023-05-19T12:53:16.369Z,4.40
2023-05-19T12:55:45.932Z,3.92
2023-05-19T12:58:13.626Z,4.80
2023-05-19T13:00:47.544Z,4.50
2023-05-19T13:03:20.649Z,5.80
2023-05-19T13:05:50.751Z,4.43
2023-05-19T13:08:24.199Z,4.60
2023-05-19T13:10:51.848Z,4.60
2023-05-19T13:13:19.495Z,4.68
2023-05-19T13:15:49.210Z,5.10
2023-05-19T13:18:17.315Z,4.78
2023-05-19T13:20:45.811Z,4.45
2023-05-19T13:23:14.522Z,4.28
2023-05-19T13:25:42.737Z,4.30
2023-05-19T13:28:10.960Z,4.93
2023-05-19T13:30:40.514Z,4.68
2023-05-19T13:33:08.470Z,5.07
2023-05-19T13:35:39.282Z,4.63
2023-05-19T13:38:10.483Z,4.75
2023-05-19T13:40:39.895Z,4.75
2023-05-19T13:43:08.821Z,4.95
2023-05-19T13:45:36.713Z,4.80
2023-05-19T13:48:04.617Z,4.70
2023-05-19T13:50:32.225Z,4.82
2023-05-19T13:53:00.140Z,4.93
2023-05-19T13:55:27.774Z,4.88
2023-05-19T13:57:55.473Z,5.43
2023-05-19T14:00:23.207Z,5.20
2023-05-19T14:02:50.794Z,4.53
2023-05-19T14:05:18.528Z,5.32
2023-05-19T14:07:46.462Z,4.88
2023-05-19T14:10:14.043Z,5.70
2023-05-19T14:13:07.979Z,5.35
2023-05-19T14:15:29.347Z,5.20
2023-05-19T14:17:57.017Z,5.07
2023-05-19T14:20:24.507Z,4.63
2023-05-19T14:22:52.151Z,4.82
2023-05-19T14:25:19.683Z,4.72
2023-05-19T14:27:47.380Z,5.25
2023-05-19T14:30:14.796Z,5.63
2023-05-19T14:32:42.359Z,5.20
2023-05-19T14:35:10.043Z,4.80
2023-05-19T14:37:37.568Z,4.95
2023-05-19T14:40:05.617Z,5.07
2023-05-19T14:42:33.538Z,4.88
2023-05-19T14:45:01.217Z,4.80
2023-05-19T14:47:28.734Z,4.40
2023-05-19T14:49:56.430Z,4.88
2023-05-19T14:52:24.013Z,4.95
2023-05-19T14:54:51.485Z,5.30
2023-05-19T14:57:19.048Z,5.00
2023-05-19T14:59:46.629Z,4.78
2023-05-19T15:02:14.174Z,4.88
2023-05-19T15:04:41.647Z,5.30
2023-05-19T15:07:10.634Z,4.90
2023-05-19T15:09:38.802Z,4.72
2023-05-19T15:12:06.498Z,5.30
2023-05-19T15:14:34.068Z,4.57
2023-05-19T15:17:01.735Z,4.70
2023-05-19T15:19:29.456Z,4.78
2023-05-19T15:21:56.957Z,4.70
2023-05-19T15:24:24.584Z,4.95
2023-05-19T15:26:52.528Z,4.82
2023-05-19T15:29:20.155Z,4.90
2023-05-19T15:31:53.627Z,4.82
2023-05-19T15:34:21.259Z,4.20
2023-05-19T15:36:48.746Z,4.53
2023-05-19T15:39:16.332Z,4.25
2023-05-19T15:41:43.911Z,5.00
2023-05-19T15:44:11.582Z,3.97
2023-05-19T15:46:39.144Z,3.92
2023-05-19T15:49:06.705Z,3.75
2023-05-19T15:51:34.814Z,4.03
2023-05-19T15:54:02.370Z,3.45
2023-05-19T15:56:29.850Z,3.92
2023-05-19T15:58:57.413Z,3.67
2023-05-19T16:01:25.248Z,3.35
2023-05-19T16:03:53.083Z,4.10
2023-05-19T16:06:21.057Z,3.88
2023-05-19T16:08:48.684Z,3.75
2023-05-19T16:11:16.204Z,3.90
2023-05-19T16:13:43.720Z,4.40
2023-05-19T16:16:11.297Z,4.35
2023-05-19T16:18:38.865Z,4.28
2023-05-19T16:21:06.613Z,4.75
2023-05-19T16:23:34.084Z,4.57
2023-05-19T16:26:01.722Z,4.38
2023-05-19T16:28:29.271Z,4.38
2023-05-19T16:31:00.453Z,4.45
2023-05-19T16:33:28.519Z,4.60
2023-05-19T16:35:57.674Z,5.72
2023-05-19T16:38:25.253Z,5.10
2023-05-19T16:40:52.956Z,5.28
2023-05-19T16:43:20.613Z,5.30
2023-05-19T16:45:48.152Z,5.90
2023-05-19T16:48:15.825Z,5.25
2023-05-19T16:50:43.333Z,5.55
2023-05-19T16:53:10.996Z,5.07
2023-05-19T16:55:38.485Z,6.07
2023-05-19T16:58:06.089Z,5.88
2023-05-19T17:00:33.914Z,5.03
2023-05-19T17:03:01.634Z,5.18
2023-05-19T17:05:29.254Z,6.35
2023-05-19T17:07:56.756Z,6.53
2023-05-19T17:10:24.313Z,6.68
2023-05-19T17:12:51.855Z,6.35
2023-05-19T17:15:19.508Z,6.45
2023-05-19T17:17:46.945Z,6.03
2023-05-19T17:20:14.593Z,5.97
2023-05-19T17:22:42.161Z,5.97
2023-05-19T17:25:10.042Z,6.45
2023-05-19T17:27:37.674Z,6.05
2023-05-19T17:30:05.714Z,6.28
2023-05-19T17:32:35.998Z,6.32
2023-05-19T17:35:05.532Z,6.40
2023-05-19T17:37:33.408Z,6.75
2023-05-19T17:40:01.119Z,6.25
2023-05-19T17:42:29.295Z,5.80
2023-05-19T17:44:56.833Z,6.22
2023-05-19T17:47:24.501Z,6.18
2023-05-19T17:49:53.203Z,6.38
2023-05-19T17:52:21.702Z,6.03
2023-05-19T17:54:50.673Z,5.90
2023-05-19T17:57:18.723Z,6.82
2023-05-19T17:59:46.737Z,6.20
2023-05-19T18:02:15.740Z,6.70
2023-05-19T18:04:43.967Z,6.30
2023-05-19T18:07:12.237Z,6.80
2023-05-19T18:09:43.772Z,7.35
2023-05-19T18:12:11.260Z,6.78
2023-05-19T18:14:39.082Z,6.80
2023-05-19T18:17:06.721Z,6.82
2023-05-19T18:19:34.302Z,7.07
2023-05-19T18:22:01.878Z,6.80
2023-05-19T18:24:29.410Z,7.30
2023-05-19T18:26:57.062Z,6.85
2023-05-19T18:29:24.544Z,7.15
2023-05-19T18:31:52.097Z,7.50
2023-05-19T18:34:19.625Z,6.68
2023-05-19T18:36:47.168Z,7.00
2023-05-19T18:39:14.698Z,6.53
2023-05-19T18:41:42.982Z,6.70
2023-05-19T18:44:11.634Z,6.82
2023-05-19T18:46:39.292Z,7.57
2023-05-19T18:49:06.899Z,7.40
2023-05-19T18:51:36.175Z,7.32
2023-05-19T18:54:03.724Z,7.80
2023-05-19T18:56:33.393Z,7.93
2023-05-19T18:59:00.844Z,7.80
2023-05-19T19:01:28.740Z,7.90
2023-05-19T19:03:56.462Z,7.93
2023-05-19T19:06:24.078Z,7.75
2023-05-19T19:08:51.665Z,8.20
2023-05-19T19:11:19.118Z,8.35
2023-05-19T19:13:47.134Z,8.55
2023-05-19T19:16:14.726Z,8.02
2023-05-19T19:18:42.274Z,8.63
2023-05-19T19:21:09.920Z,8.20
2023-05-19T19:23:38.194Z,8.13
2023-05-19T19:26:08.578Z,8.25
2023-05-19T19:28:36.178Z,8.65
2023-05-19T19:31:03.730Z,8.13
2023-05-19T19:33:31.389Z,8.23
2023-05-19T19:35:59.010Z,8.70
2023-05-19T19:38:26.552Z,9.00
2023-05-19T19:40:54.092Z,9.30
2023-05-19T19:43:21.681Z,9.18
2023-05-19T19:45:49.772Z,9.77
2023-05-19T19:48:17.259Z,9.77
2023-05-19T19:50:44.895Z,10.30
2023-05-19T19:53:12.401Z,8.77
2023-05-19T19:55:40.192Z,9.50
2023-05-19T19:58:07.901Z,10.27
2023-05-19T20:00:35.671Z,10.60
2023-05-19T20:03:05.869Z,11.23
2023-05-19T20:05:33.785Z,11.25
2023-05-19T20:08:01.358Z,11.13
2023-05-19T20:10:29.026Z,11.70
2023-05-19T20:12:58.926Z,11.40
2023-05-19T20:15:27.050Z,10.52
2023-05-19T20:17:54.566Z,11.57
2023-05-19T20:20:22.158Z,10.75
2023-05-19T20:22:49.745Z,11.02
2023-05-19T20:25:17.225Z,11.25
2023-05-19T20:27:44.783Z,13.13
2023-05-19T20:30:12.362Z,11.40
2023-05-19T20:32:40.250Z,12.43
2023-05-19T20:35:08.795Z,11.88
2023-05-19T20:37:36.847Z,11.75
2023-05-19T20:40:04.811Z,12.80
2023-05-19T20:42:32.618Z,12.48
2023-05-19T20:45:00.659Z,12.60
2023-05-19T20:47:30.258Z,11.63
2023-05-19T20:49:58.970Z,12.18
2023-05-19T20:52:27.131Z,11.85
2023-05-19T20:54:54.704Z,11.43
2023-05-19T20:57:22.232Z,11.68
2023-05-19T20:59:49.837Z,13.65
2023-05-19T21:02:17.342Z,12.57
2023-05-19T21:04:46.152Z,11.98
2023-05-19T21:07:13.908Z,12.40
2023-05-19T21:09:42.867Z,12.82
2023-05-19T21:12:10.745Z,13.25
2023-05-19T21:14:38.250Z,12.20
2023-05-19T21:17:07.265Z,12.32
2023-05-19T21:19:36.958Z,13.85
2023-05-19T21:22:04.827Z,12.52
2023-05-19T21:24:32.518Z,12.63
2023-05-19T21:27:00.058Z,12.30
2023-05-19T21:29:27.666Z,13.48
2023-05-19T21:31:56.322Z,13.35
2023-05-19T21:34:23.865Z,13.93
2023-05-19T21:36:51.384Z,13.45
2023-05-19T21:39:19.025Z,13.98
2023-05-19T21:41:46.553Z,14.25
2023-05-19T21:44:14.017Z,14.65
2023-05-19T21:46:41.593Z,14.50
2023-05-19T21:49:09.203Z,14.98
2023-05-19T21:51:36.934Z,15.40
2023-05-19T21:54:04.501Z,15.20
2023-05-19T21:56:32.040Z,16.40
2023-05-19T21:58:59.608Z,16.02
2023-05-19T22:01:27.781Z,15.30
2023-05-19T22:03:55.593Z,16.02
2023-05-19T22:06:23.324Z,14.57
2023-05-19T22:08:50.924Z,15.95
2023-05-19T22:11:18.464Z,15.98
2023-05-19T22:13:46.009Z,17.80
2023-05-19T22:16:13.540Z,15.63
2023-05-19T22:18:41.147Z,16.00
2023-05-19T22:21:08.681Z,16.67
2023-05-19T22:23:36.120Z,15.88
2023-05-19T22:26:03.701Z,17.40
2023-05-19T22:28:31.238Z,18.13
2023-05-19T22:30:58.767Z,18.00
2023-05-19T22:33:26.383Z,19.13
2023-05-19T22:35:53.963Z,19.63
2023-05-19T22:38:21.540Z,18.67
2023-05-19T22:40:50.111Z,20.52
2023-05-19T22:43:17.668Z,19.33
2023-05-19T22:45:45.384Z,18.92
2023-05-19T22:48:12.920Z,18.85
2023-05-19T22:50:40.470Z,19.88
2023-05-19T22:53:08.121Z,20.30
2023-05-19T22:55:35.962Z,20.10
2023-05-19T22:58:03.765Z,19.17
2023-05-19T23:00:31.419Z,21.10
2023-05-19T23:02:59.441Z,19.88
2023-05-19T23:05:26.999Z,19.73
2023-05-19T23:07:54.519Z,20.00
2023-05-19T23:10:22.050Z,20.35
2023-05-19T23:12:50.171Z,20.15
2023-05-19T23:15:17.807Z,19.98
2023-05-19T23:17:45.608Z,19.27
2023-05-19T23:20:13.523Z,18.60
2023-05-19T23:22:41.170Z,18.08
2023-05-19T23:25:08.830Z,18.83
2023-05-19T23:27:36.736Z,17.67
2023-05-19T23:30:05.073Z,17.15
2023-05-19T23:32:32.634Z,17.38
2023-05-19T23:35:13.313Z,17.00
2023-05-19T23:37:40.985Z,18.15
2023-05-19T23:40:09.248Z,19.27
2023-05-19T23:42:37.115Z,20.75
2023-05-19T23:45:05.085Z,21.35
2023-05-19T23:47:32.836Z,21.85
2023-05-19T23:50:00.473Z,21.77
2023-05-19T23:52:28.045Z,22.33
2023-05-19T23:54:55.678Z,22.52
2023-05-19T23:57:23.226Z,23.52
2023-05-19T23:59:50.886Z,22.25
